Latest Coastal Weather Observations for Robe Airport

IDS60701

Issued at 8:11 am CST Sunday 1 May 2016 (issued every 10 minutes, with the page automatically refreshed every 10 minutes)

About coastal observations | Map of coastal stations | Coastal observations for SA | Marine services | Other Formats
Station Details ID: 026105 Name: ROBE AIRFIELD Lat: -37.18 Lon: 139.81 Height: 3.0 m
Data from the previous 72 hours. | See also: Recent months at Robe Airport
Date/Time
CST
Temp

°C
Wind Pressure Rain
since 9am
mm
Weather Cloud Vis
km
Sea
Height
m
Swell
Dir
 
Speed
knots
Gust
knots
hPa Trend Height
m
Period
s
Dir
01/08:00am 10.5 WSW 12 18 1011.5 - 13.2 - - - - - - -
01/07:30am 12.0 WSW 10 17 1010.5 - 10.6 - - - - - - -
01/07:06am 12.1 WSW 14 27 1010.1 - 10.4 - - - - - - -
01/07:00am 12.9 W 12 19 1009.7 - 10.4 - - - - - - -
01/06:30am 11.7 WSW 8 13 1009.0 - 10.4 - - - - - - -
01/06:00am 11.8 SW 15 21 1008.2 - 10.4 Recent precip. - - - - - -
01/05:30am 10.9 WSW 13 23 1007.9 - 10.0 - - - - - - -
01/05:00am 11.9 WSW 11 19 1007.3 - 7.8 - - - - - - -
01/04:30am 11.2 W 12 23 1006.5 - 7.8 - - - - - - -
01/04:21am 11.1 WSW 13 24 1006.4 - 7.4 - - - - - - -
01/04:00am 11.4 WSW 7 13 1005.6 - 3.4 - - - - - - -
01/03:30am 13.3 W 10 17 1004.7 - 2.2 - - - - - - -
01/03:00am 12.7 W 8 16 1005.0 - 2.2 Recent precip. - - - - - -
01/02:30am 12.1 WSW 11 17 1004.6 - 2.2 - - - - - - -
01/02:00am 12.9 WSW 10 17 1004.6 - 1.4 - - - - - - -
01/01:30am 13.3 WNW 12 21 1004.2 - 1.2 - - - - - - -
01/01:00am 12.7 W 14 27 1003.4 - 1.2 - - - - - - -
01/12:30am 14.7 WNW 16 28 1004.0 - 0.0 - - - - - - -
01/12:29am 14.7 WNW 15 25 1004.1 - 0.0 - - - - - - -
01/12:00am 14.3 W 12 20 1003.4 - 0.0 - - - - - - -
 
Date/Time
CST
Temp

°C
Wind Pressure Rain
since 9am
mm
Weather Cloud Vis
km
Sea
Height
m
Swell
Dir
 
Speed
knots
Gust
knots
hPa Trend Height
m
Period
s
Dir
30/11:30pm 14.4 W 20 33 1003.6 - 0.0 - - - - - - -
30/11:16pm 15.4 WNW 24 38 1003.6 - 0.0 - - - - - - -
30/11:15pm 15.6 WNW 23 37 1003.8 - 0.0 - - - - - - -
30/11:00pm 17.3 NW 22 32 1002.9 - 0.0 - - - - - - -
30/10:33pm 18.1 NW 19 31 1003.3 - 0.0 - - - - - - -
30/10:30pm 18.1 NW 18 23 1003.4 - 0.0 - - - - - - -
30/10:00pm 18.1 NNW 13 19 1002.7 - 0.0 - - - - - - -
30/09:41pm 18.6 NW 17 27 1003.0 - 0.0 - - - - - - -
30/09:30pm 19.4 NW 17 23 1003.5 - 0.0 - - - - - - -
30/09:00pm 19.3 NNW 14 23 1003.3 - 0.0 - - - - - - -
30/08:30pm 18.7 N 11 14 1003.3 - 0.0 - - - - - - -
30/08:00pm 18.7 N 11 14 1003.2 - 0.0 - - - - - - -
30/07:30pm 18.1 N 8 11 1003.8 - 0.0 - - - - - - -
30/07:00pm 17.2 N 8 10 1004.4 - 0.0 - - - - - - -
30/06:30pm 17.6 NNW 9 12 1004.7 - 0.0 - - - - - - -
30/06:00pm 18.4 NNW 11 16 1004.9 - 0.0 - - - - - - -
30/05:30pm 19.2 NNW 12 17 1004.9 - 0.0 - - - - - - -
30/05:00pm 19.9 NNW 12 15 1005.2 - 0.0 - - - - - - -
30/04:30pm 21.2 NNW 13 16 1005.4 - 0.0 - - - - - - -
30/04:00pm 22.3 N 13 16 1005.4 - 0.0 - - - - - - -
30/03:30pm 22.8 NNW 13 19 1005.5 - 0.0 - - - - - - -
30/03:00pm 22.2 NNW 12 16 1006.1 - 0.0 - - - - - - -
30/02:30pm 21.5 NNW 14 19 1006.9 - 0.0 - - - - - - -
30/02:00pm 21.3 NNW 16 21 1007.3 - 0.0 - - - - - - -
30/01:30pm 21.3 NNW 16 21 1007.8 - 0.0 - - - - - - -
30/01:00pm 21.2 NNW 15 21 1008.2 - 0.0 - - - - - - -
30/12:30pm 20.9 NNW 15 19 1009.0 - 0.0 - - - - - - -
30/12:00pm 20.3 NNW 15 20 1009.7 - 0.0 - - - - - - -
30/11:30am 20.4 NNW 16 21 1010.2 - 0.0 - - - - - - -
30/11:00am 19.4 NNW 18 24 1010.6 - 0.0 - - - - - - -
30/10:30am 19.6 NNW 16 22 1010.8 - 0.0 - - - - - - -
30/10:00am 18.7 NNW 15 20 1010.9 - 0.0 - - - - - - -
30/09:30am 18.0 N 14 21 1011.0 - 0.0 - - - - - - -
30/09:00am 17.0 N 11 15 1011.2 - 0.8 - - - - - - -
30/08:30am 15.9 N 8 12 1011.1 - 0.8 - - - - - - -
30/08:00am 14.7 N 7 10 1011.0 - 0.8 - - - - - - -
30/07:30am 13.2 N 6 7 1011.0 - 0.8 - - - - - - -
30/07:00am 13.2 N 7 9 1010.8 - 0.8 - - - - - - -
30/06:30am 12.9 N 7 8 1010.6 - 0.8 - - - - - - -
30/06:00am 12.7 N 6 7 1010.5 - 0.8 - - - - - - -
30/05:30am 12.6 N 6 8 1010.6 - 0.8 - - - - - - -
30/05:00am 12.6 N 6 8 1010.5 - 0.8 - - - - - - -
30/04:30am 12.2 N 5 6 1010.4 - 0.8 - - - - - - -
30/04:00am 12.7 N 5 7 1010.3 - 0.8 - - - - - - -
30/03:30am 12.5 N 6 8 1010.3 - 0.6 - - - - - - -
30/03:00am 12.1 N 4 5 1010.4 - 0.6 - - - - - - -
30/02:30am 12.2 N 5 6 1010.5 - 0.6 - - - - - - -
30/02:00am 13.1 N 7 9 1010.9 - 0.6 - - - - - - -
30/01:30am 12.9 N 6 7 1010.8 - 0.6 - - - - - - -
30/01:00am 12.9 N 5 7 1010.9 - 0.6 - - - - - - -
30/12:30am 12.4 N 5 6 1010.9 - 0.6 - - - - - - -
30/12:00am 11.9 N 5 6 1011.0 - 0.6 - - - - - - -
 
Date/Time
CST
Temp

°C
Wind Pressure Rain
since 9am
mm
Weather Cloud Vis
km
Sea
Height
m
Swell
Dir
 
Speed
knots
Gust
knots
hPa Trend Height
m
Period
s
Dir
29/11:30pm 12.3 N 4 5 1011.1 - 0.6 - - - - - - -
29/11:00pm 12.1 N 3 4 1011.4 - 0.6 - - - - - - -
29/10:30pm 12.7 N 5 6 1011.6 - 0.6 - - - - - - -
29/10:00pm 12.7 N 5 5 1011.8 - 0.6 - - - - - - -
29/09:30pm 12.6 N 4 5 1011.9 - 0.6 - - - - - - -
29/09:00pm 13.0 N 4 4 1012.1 - 0.6 - - - - - - -
29/08:30pm 13.2 N 4 5 1011.9 - 0.6 - - - - - - -
29/08:00pm 13.4 N 5 6 1011.7 - 0.6 - - - - - - -
29/07:30pm 13.8 N 6 6 1011.6 - 0.6 - - - - - - -
29/07:00pm 14.4 N 6 7 1011.4 - 0.6 - - - - - - -
29/06:30pm 14.9 N 6 7 1011.4 - 0.6 - - - - - - -
29/06:00pm 15.4 N 6 7 1011.2 - 0.6 - - - - - - -
29/05:30pm 16.5 N 7 10 1011.0 - 0.6 - - - - - - -
29/05:00pm 17.4 NNW 9 12 1011.0 - 0.6 - - - - - - -
29/04:30pm 18.1 NNW 10 13 1010.8 - 0.6 - - - - - - -
29/04:00pm 18.6 NNW 11 15 1010.8 - 0.6 - - - - - - -
29/03:30pm 17.9 NNW 13 17 1011.0 - 0.6 - - - - - - -
29/03:00pm 18.7 NNW 11 15 1010.6 - 0.6 - - - - - - -
29/02:30pm 18.3 NNW 12 16 1010.5 - 0.6 - - - - - - -
29/02:00pm 17.7 NNW 11 14 1010.5 - 0.6 - - - - - - -
29/01:30pm 18.2 NNW 13 18 1010.5 - 0.6 - - - - - - -
29/01:00pm 17.7 NNW 15 19 1010.6 - 0.6 - - - - - - -
29/12:30pm 18.9 NNW 13 18 1010.7 - 0.6 - - - - - - -
29/12:00pm 17.5 NNW 13 17 1011.1 - 0.6 - - - - - - -
29/11:30am 17.2 NNW 13 17 1011.4 - 0.6 - - - - - - -
29/11:00am 16.7 N 12 17 1011.3 - 0.6 - - - - - - -
29/10:30am 15.5 N 10 13 1011.2 - 0.6 - - - - - - -
29/10:00am 15.0 N 10 13 1011.5 - 0.4 - - - - - - -
29/09:30am 15.0 NNW 10 13 1012.0 - 0.4 - - - - - - -
29/09:00am 14.9 NNW 12 16 1012.1 - 9.8 Recent precip. - - - - - -
29/08:30am 14.8 NNW 10 14 1011.7 - 9.6 - - - - - - -
29/08:00am 15.2 NW 13 17 1012.2 - 9.0 - - - - - - -
29/07:30am 15.8 NW 8 13 1012.1 - 7.8 - - - - - - -
29/07:00am 15.9 N 11 15 1011.0 - 7.2 - - - - - - -
29/06:30am 16.4 NNW 12 17 1011.1 - 6.8 - - - - - - -
29/06:00am 16.3 N 11 15 1010.9 - 6.2 Recent precip. - - - - - -
29/05:30am 16.3 N 11 14 1010.9 - 6.0 - - - - - - -
29/05:00am 16.8 NNW 14 19 1011.1 - 5.8 - - - - - - -
29/04:30am 18.0 NNW 16 24 1010.9 - 5.4 - - - - - - -
29/04:00am 17.3 N 16 22 1010.2 - 5.4 - - - - - - -
29/03:30am 17.6 NNW 13 18 1010.3 - 5.2 - - - - - - -
29/03:00am 17.7 N 15 20 1010.1 - 5.2 Rain - - - - - -
29/02:30am 18.0 N 10 17 1010.3 - 5.0 - - - - - - -
29/02:00am 17.6 NNE 8 14 1010.4 - 5.0 - - - - - - -
29/01:30am 16.5 NE 5 8 1009.9 - 5.0 - - - - - - -
29/01:00am 16.7 WNW 3 5 1011.2 - 4.6 - - - - - - -
29/12:30am 16.7 NNE 9 13 1010.0 - 4.0 - - - - - - -
29/12:00am 16.4 NE 9 11 1010.3 - 4.0 - - - - - - -
 
Date/Time
CST
Temp

°C
Wind Pressure Rain
since 9am
mm
Weather Cloud Vis
km
Sea
Height
m
Swell
Dir
 
Speed
knots
Gust
knots
hPa Trend Height
m
Period
s
Dir
28/11:30pm 16.6 NE 8 11 1010.8 - 4.0 - - - - - - -
28/11:00pm 16.4 NE 8 10 1011.7 - 4.0 - - - - - - -
28/10:30pm 16.4 NE 6 9 1012.6 - 4.0 - - - - - - -
28/10:00pm 16.3 NE 6 9 1013.1 - 4.0 - - - - - - -
28/09:30pm 16.3 NE 6 9 1013.6 - 3.2 - - - - - - -
28/09:00pm 16.1 NE 6 8 1013.5 - 3.2 Recent precip. - - - - - -
28/08:30pm 16.1 NE 5 8 1013.9 - 3.0 - - - - - - -
28/08:00pm 15.7 E 4 5 1014.4 - 2.2 - - - - - - -
28/07:30pm 15.2 ESE 3 6 1013.8 - 2.0 - - - - - - -
28/07:00pm 15.1 ESE 6 8 1013.8 - 2.0 - - - - - - -
28/06:30pm 15.6 SSW 2 3 1015.0 - 1.6 - - - - - - -
28/06:00pm 16.3 W 1 3 1015.1 - 1.2 Rain - - - - - -
28/05:30pm 17.0 W 2 3 1014.8 - 0.4 - - - - - - -
28/05:00pm 17.9 NNW 2 4 1014.4 - 0.0 - - - - - - -
28/04:30pm 18.4 NE 2 3 1014.0 - 0.0 - - - - - - -
28/04:00pm 17.7 N 1 3 1014.3 - 0.0 - - - - - - -
28/03:30pm 17.7 N 2 2 1014.9 - 0.0 - - - - - - -
28/03:00pm 18.0 NNW 5 6 1015.3 - 0.0 - - - - - - -
28/02:30pm 18.4 NW 5 8 1015.4 - 0.0 - - - - - - -
28/02:00pm 18.5 NW 4 6 1015.6 - 0.0 - - - - - - -
28/01:30pm 19.3 NW 6 8 1016.2 - 0.0 - - - - - - -
28/01:00pm 19.9 WNW 4 7 1016.5 - 0.0 - - - - - - -
28/12:30pm 19.9 WNW 3 5 1016.7 - 0.0 - - - - - - -
28/12:00pm 19.4 WNW 4 7 1017.2 - 0.0 - - - - - - -
28/11:30am 20.2 SSW 3 6 1017.1 - 0.0 - - - - - - -
28/11:00am 19.5 WSW 4 6 1017.4 - 0.0 - - - - - - -
28/10:30am 19.4 NW 6 9 1017.5 - 0.0 - - - - - - -
28/10:00am 18.4 NW 4 7 1017.6 - 0.0 - - - - - - -
28/09:30am 17.5 WNW 3 5 1017.7 - 0.0 - - - - - - -
28/09:00am 16.8 WNW 2 3 1017.6 - 1.0 - - - - - - -
28/08:30am 16.2 CALM 0 0 1017.8 - 1.0 - - - - - - -

Other Formats:

Comma delimited format used in spreadsheet applications
http://www.bom.gov.au/fwo/IDS60701/IDS60701.95816.axf

JavaScript Object Notation format (JSON) in row-major order
http://www.bom.gov.au/fwo/IDS60701/IDS60701.95816.json